Time,TemperatureF,DewpointF,PressureIn,WindDirection,WindDirectionDegrees,WindSpeedMPH,WindSpeedGustMPH,Humidity,HourlyPrecipIn,Conditions,Clouds,dailyrainin,SoftwareType,DateUTC
2013-06-22 00:00:00,70.5,60.3,30.05,ESE,107,1.0,2.0,70,0.00,,---,0.00,VWS V14.01,2013-06-22 04:00:00,
2013-06-22 00:01:00,70.7,60.0,30.06,SE,139,2.0,2.0,69,0.00,,---,0.00,VWS V14.01,2013-06-22 04:01:00,
2013-06-22 00:02:00,70.7,60.0,30.06,SE,136,1.0,2.0,69,0.00,,---,0.00,VWS V14.01,2013-06-22 04:02:00,
2013-06-22 00:03:00,70.7,60.0,30.06,SE,132,2.0,2.0,69,0.00,,---,0.00,VWS V14.01,2013-06-22 04:03:00,
2013-06-22 00:08:00,70.9,60.2,30.06,SE,142,2.0,3.0,69,0.00,,---,0.00,VWS V14.01,2013-06-22 04:08:00,
2013-06-22 00:13:00,71.0,59.9,30.06,SE,132,1.0,3.0,68,0.00,,---,0.00,VWS V14.01,2013-06-22 04:13:00,
2013-06-22 00:18:00,71.1,60.0,30.06,SE,135,1.0,3.0,68,0.00,,---,0.00,VWS V14.01,2013-06-22 04:18:00,
2013-06-22 00:23:00,71.1,60.0,30.05,SE,131,1.0,3.0,68,0.00,,---,0.00,VWS V14.01,2013-06-22 04:23:00,
2013-06-22 00:28:00,71.0,59.9,30.05,SSE,149,2.0,3.0,68,0.00,,---,0.00,VWS V14.01,2013-06-22 04:28:00,
2013-06-22 00:33:00,70.9,59.8,30.05,SSE,160,3.0,3.0,68,0.00,,---,0.00,VWS V14.01,2013-06-22 04:33:00,
2013-06-22 00:38:00,70.9,59.8,30.05,ESE,120,2.0,3.0,68,0.00,,---,0.00,VWS V14.01,2013-06-22 04:38:00,
2013-06-22 00:43:00,70.9,59.8,30.05,South,169,2.0,4.0,68,0.00,,---,0.00,VWS V14.01,2013-06-22 04:43:00,
2013-06-22 00:48:00,70.8,59.7,30.04,SSE,149,2.0,6.0,68,0.00,,---,0.00,VWS V14.01,2013-06-22 04:48:00,
2013-06-22 00:53:00,70.8,59.7,30.04,SE,132,3.0,6.0,68,0.00,,---,0.00,VWS V14.01,2013-06-22 04:53:00,
2013-06-22 00:58:00,70.8,59.7,30.04,SSE,153,3.0,6.0,68,0.00,,---,0.00,VWS V14.01,2013-06-22 04:58:00,
2013-06-22 01:00:00,70.7,60.0,30.06,SE,139,2.0,2.0,69,0.00,,---,0.00,VWS V14.01,2013-06-22 05:00:00,
2013-06-22 01:04:00,70.9,59.8,30.04,SSW,201,3.0,4.0,68,0.00,,---,0.00,VWS V14.01,2013-06-22 05:04:00,
2013-06-22 01:09:00,70.9,59.4,30.04,SSE,167,4.0,4.0,67,0.00,,---,0.00,VWS V14.01,2013-06-22 05:09:00,
2013-06-22 01:14:00,70.8,59.3,30.05,SSW,204,2.0,5.0,67,0.00,,---,0.00,VWS V14.01,2013-06-22 05:14:00,
2013-06-22 01:19:00,70.8,59.3,30.04,SSE,148,3.0,5.0,67,0.00,,---,0.00,VWS V14.01,2013-06-22 05:19:00,
2013-06-22 01:24:00,70.8,59.3,30.04,SSW,211,6.0,6.0,67,0.00,,---,0.00,VWS V14.01,2013-06-22 05:24:00,
2013-06-22 01:29:00,70.9,59.4,30.04,South,186,3.0,8.0,67,0.00,,---,0.00,VWS V14.01,2013-06-22 05:29:00,
2013-06-22 01:34:00,71.0,59.1,30.04,South,186,4.0,8.0,66,0.00,,---,0.00,VWS V14.01,2013-06-22 05:34:00,
2013-06-22 01:39:00,71.1,59.2,30.04,South,191,5.0,8.0,66,0.00,,---,0.00,VWS V14.01,2013-06-22 05:39:00,
2013-06-22 01:44:00,71.2,59.3,30.04,SSE,162,3.0,8.0,66,0.00,,---,0.00,VWS V14.01,2013-06-22 05:44:00,
2013-06-22 01:49:00,71.1,59.2,30.04,South,172,3.0,8.0,66,0.00,,---,0.00,VWS V14.01,2013-06-22 05:49:00,
2013-06-22 01:54:00,71.1,59.2,30.03,South,174,3.0,8.0,66,0.00,,---,0.00,VWS V14.01,2013-06-22 05:54:00,
2013-06-22 01:59:00,71.1,58.8,30.03,SSE,167,4.0,8.0,65,0.00,,---,0.00,VWS V14.01,2013-06-22 05:59:00,
2013-06-22 02:00:00,70.8,59.7,30.05,SSE,163,3.0,6.0,68,0.00,,---,0.00,VWS V14.01,2013-06-22 06:00:00,
2013-06-22 02:04:00,71.2,58.8,30.03,SSE,166,4.0,7.0,65,0.00,,---,0.00,VWS V14.01,2013-06-22 06:04:00,
2013-06-22 02:10:00,71.3,58.9,30.03,South,172,5.0,7.0,65,0.00,,---,0.00,VWS V14.01,2013-06-22 06:10:00,
2013-06-22 02:15:00,71.4,59.0,30.03,South,186,3.0,8.0,65,0.00,,---,0.00,VWS V14.01,2013-06-22 06:15:00,
2013-06-22 02:20:00,71.4,59.0,30.03,SSW,201,3.0,8.0,65,0.00,,---,0.00,VWS V14.01,2013-06-22 06:20:00,
2013-06-22 02:25:00,71.5,59.1,30.03,South,174,3.0,8.0,65,0.00,,---,0.00,VWS V14.01,2013-06-22 06:25:00,
2013-06-22 02:30:00,71.4,59.5,30.03,SW,231,3.0,8.0,66,0.00,,---,0.00,VWS V14.01,2013-06-22 06:30:00,
2013-06-22 02:35:00,71.3,59.4,30.03,SSW,207,3.0,8.0,66,0.00,,---,0.00,VWS V14.01,2013-06-22 06:35:00,
2013-06-22 02:40:00,71.2,59.3,30.03,SSW,201,1.0,8.0,66,0.00,,---,0.00,VWS V14.01,2013-06-22 06:40:00,
2013-06-22 02:45:00,71.3,59.4,30.02,SSW,203,2.0,8.0,66,0.00,,---,0.00,VWS V14.01,2013-06-22 06:45:00,
2013-06-22 02:50:00,71.3,59.4,30.02,SW,229,2.0,8.0,66,0.00,,---,0.00,VWS V14.01,2013-06-22 06:50:00,
2013-06-22 02:55:00,71.4,59.9,30.02,SSW,211,3.0,8.0,67,0.00,,---,0.00,VWS V14.01,2013-06-22 06:55:00,
2013-06-22 03:00:00,71.4,59.5,30.02,SSW,203,4.0,8.0,66,0.00,,---,0.00,VWS V14.01,2013-06-22 07:00:00,
2013-06-22 03:05:00,71.3,59.8,30.02,SW,232,4.0,6.0,67,0.00,,---,0.00,VWS V14.01,2013-06-22 07:05:00,
2013-06-22 03:11:00,71.3,59.8,30.01,SSW,208,4.0,6.0,67,0.00,,---,0.00,VWS V14.01,2013-06-22 07:11:00,
2013-06-22 03:16:00,71.3,59.8,30.01,SW,221,4.0,6.0,67,0.00,,---,0.00,VWS V14.01,2013-06-22 07:16:00,
2013-06-22 03:21:00,71.3,59.8,30.00,SSW,212,3.0,8.0,67,0.00,,---,0.00,VWS V14.01,2013-06-22 07:21:00,
2013-06-22 03:26:00,71.3,60.2,30.00,SSW,195,4.0,8.0,68,0.00,,---,0.00,VWS V14.01,2013-06-22 07:26:00,
2013-06-22 03:31:00,71.4,60.3,30.00,SSW,205,3.0,8.0,68,0.00,,---,0.00,VWS V14.01,2013-06-22 07:31:00,
2013-06-22 03:36:00,71.4,59.9,30.00,SSW,211,3.0,8.0,67,0.00,,---,0.00,VWS V14.01,2013-06-22 07:36:00,
2013-06-22 03:41:00,71.4,60.3,30.00,SSW,204,3.0,8.0,68,0.00,,---,0.00,VWS V14.01,2013-06-22 07:41:00,
2013-06-22 03:46:00,71.3,60.2,30.00,South,184,4.0,8.0,68,0.00,,---,0.00,VWS V14.01,2013-06-22 07:46:00,
2013-06-22 03:51:00,71.3,60.2,30.00,SSW,200,4.0,8.0,68,0.00,,---,0.00,VWS V14.01,2013-06-22 07:51:00,
2013-06-22 03:56:00,71.4,60.3,29.99,SSW,193,2.0,8.0,68,0.00,,---,0.00,VWS V14.01,2013-06-22 07:56:00,
2013-06-22 04:00:00,71.4,59.5,30.02,SW,218,6.0,8.0,66,0.00,,---,0.00,VWS V14.01,2013-06-22 08:00:00,
2013-06-22 04:01:00,71.5,60.4,29.99,SSW,205,3.0,3.0,68,0.00,,---,0.00,VWS V14.01,2013-06-22 08:01:00,
2013-06-22 04:06:00,71.5,60.4,29.99,South,176,3.0,6.0,68,0.00,,---,0.00,VWS V14.01,2013-06-22 08:06:00,
2013-06-22 04:11:00,71.5,60.4,29.99,SSW,212,4.0,6.0,68,0.00,,---,0.00,VWS V14.01,2013-06-22 08:11:00,
2013-06-22 04:16:00,71.4,60.7,29.99,SSE,156,2.0,6.0,69,0.00,,---,0.00,VWS V14.01,2013-06-22 08:16:00,
2013-06-22 04:22:00,71.3,60.6,29.99,South,186,2.0,6.0,69,0.00,,---,0.00,VWS V14.01,2013-06-22 08:22:00,
2013-06-22 04:27:00,71.2,60.5,29.99,SSW,204,3.0,6.0,69,0.00,,---,0.00,VWS V14.01,2013-06-22 08:27:00,
2013-06-22 04:32:00,71.2,60.9,29.99,SSW,204,3.0,6.0,70,0.00,,---,0.00,VWS V14.01,2013-06-22 08:32:00,
2013-06-22 04:37:00,71.2,60.9,29.99,SW,225,2.0,6.0,70,0.00,,---,0.00,VWS V14.01,2013-06-22 08:37:00,
2013-06-22 04:42:00,71.1,60.8,29.99,SSW,200,2.0,6.0,70,0.00,,---,0.00,VWS V14.01,2013-06-22 08:42:00,
2013-06-22 04:47:00,71.0,60.7,29.98,South,170,2.0,6.0,70,0.00,,---,0.00,VWS V14.01,2013-06-22 08:47:00,
2013-06-22 04:52:00,71.0,60.7,29.98,South,174,4.0,6.0,70,0.00,,---,0.00,VWS V14.01,2013-06-22 08:52:00,
2013-06-22 04:57:00,70.9,61.0,29.98,South,177,2.0,6.0,71,0.00,,---,0.00,VWS V14.01,2013-06-22 08:57:00,
2013-06-22 05:00:00,71.4,60.3,29.99,South,180,2.0,8.0,68,0.00,,---,0.00,VWS V14.01,2013-06-22 09:00:00,
2013-06-22 05:02:00,70.7,60.8,29.98,South,179,2.0,3.0,71,0.00,,---,0.00,VWS V14.01,2013-06-22 09:02:00,
2013-06-22 05:07:00,70.5,61.0,29.98,South,186,2.0,4.0,72,0.00,,---,0.00,VWS V14.01,2013-06-22 09:07:00,
2013-06-22 05:12:00,70.4,61.0,29.98,SW,214,2.0,4.0,72,0.00,,---,0.00,VWS V14.01,2013-06-22 09:12:00,
2013-06-22 05:17:00,70.2,61.2,29.98,South,174,3.0,4.0,73,0.00,,---,0.00,VWS V14.01,2013-06-22 09:17:00,
2013-06-22 05:22:00,70.2,61.2,29.99,SW,215,2.0,4.0,73,0.00,,---,0.00,VWS V14.01,2013-06-22 09:22:00,
2013-06-22 05:27:00,70.1,61.4,29.99,SW,231,3.0,4.0,74,0.00,,---,0.00,VWS V14.01,2013-06-22 09:27:00,
2013-06-22 05:33:00,70.2,61.5,29.99,SSW,200,3.0,4.0,74,0.00,,---,0.00,VWS V14.01,2013-06-22 09:33:00,
2013-06-22 05:38:00,70.3,61.6,29.99,SSW,200,2.0,4.0,74,0.00,,---,0.00,VWS V14.01,2013-06-22 09:38:00,
2013-06-22 05:43:00,70.5,61.8,29.99,South,188,4.0,6.0,74,0.00,,---,0.00,VWS V14.01,2013-06-22 09:43:00,
2013-06-22 05:48:00,70.7,61.6,29.99,SSW,207,4.0,7.0,73,0.00,,---,0.00,VWS V14.01,2013-06-22 09:48:00,
2013-06-22 05:53:00,70.9,61.8,29.99,SSW,208,4.0,7.0,73,0.00,,---,0.00,VWS V14.01,2013-06-22 09:53:00,
2013-06-22 05:58:00,71.0,61.9,29.99,SW,217,4.0,7.0,73,0.00,,---,0.00,VWS V14.01,2013-06-22 09:58:00,
2013-06-22 06:00:00,70.8,60.9,29.98,SSW,193,1.0,6.0,71,0.00,,---,0.00,VWS V14.01,2013-06-22 10:00:00,
2013-06-22 06:03:00,71.0,61.9,29.99,SSW,201,5.0,7.0,73,0.00,,---,0.00,VWS V14.01,2013-06-22 10:03:00,
2013-06-22 06:08:00,71.0,61.9,29.99,SSW,200,4.0,7.0,73,0.00,,---,0.00,VWS V14.01,2013-06-22 10:08:00,
2013-06-22 06:13:00,71.2,62.1,29.99,SSW,205,7.0,9.0,73,0.00,,---,0.00,VWS V14.01,2013-06-22 10:13:00,
2013-06-22 06:18:00,71.3,62.2,29.99,SSW,205,4.0,9.0,73,0.00,,---,0.00,VWS V14.01,2013-06-22 10:18:00,
2013-06-22 06:23:00,71.3,62.2,29.99,SSW,212,9.0,9.0,73,0.00,,---,0.00,VWS V14.01,2013-06-22 10:23:00,
2013-06-22 06:28:00,71.3,62.2,29.99,SSW,212,6.0,9.0,73,0.00,,---,0.00,VWS V14.01,2013-06-22 10:28:00,
2013-06-22 06:33:00,71.2,62.5,29.99,SW,219,6.0,9.0,74,0.00,,---,0.00,VWS V14.01,2013-06-22 10:33:00,
2013-06-22 06:38:00,71.2,62.5,29.99,South,183,5.0,9.0,74,0.00,,---,0.00,VWS V14.01,2013-06-22 10:38:00,
2013-06-22 06:44:00,71.2,62.9,29.99,SSW,195,4.0,9.0,75,0.00,,---,0.00,VWS V14.01,2013-06-22 10:44:00,
2013-06-22 06:49:00,71.3,62.6,29.99,South,190,8.0,10.0,74,0.00,,---,0.00,VWS V14.01,2013-06-22 10:49:00,
2013-06-22 06:54:00,71.4,63.1,30.00,SW,224,6.0,10.0,75,0.00,,---,0.00,VWS V14.01,2013-06-22 10:54:00,
2013-06-22 06:59:00,71.3,63.0,30.00,SSE,160,2.0,10.0,75,0.00,,---,0.00,VWS V14.01,2013-06-22 10:59:00,
2013-06-22 07:00:00,70.9,62.2,29.99,SW,226,4.0,7.0,74,0.00,,---,0.00,VWS V14.01,2013-06-22 11:00:00,
2013-06-22 07:04:00,71.4,63.1,30.00,SSW,202,3.0,5.0,75,0.00,,---,0.00,VWS V14.01,2013-06-22 11:04:00,
2013-06-22 07:09:00,71.4,63.1,30.00,SSW,200,3.0,7.0,75,0.00,,---,0.00,VWS V14.01,2013-06-22 11:09:00,
2013-06-22 07:14:00,71.4,63.1,30.00,SSW,204,6.0,7.0,75,0.00,,---,0.00,VWS V14.01,2013-06-22 11:14:00,
2013-06-22 07:19:00,71.5,63.2,30.00,South,181,5.0,10.0,75,0.00,,---,0.00,VWS V14.01,2013-06-22 11:19:00,
2013-06-22 07:24:00,71.6,63.3,30.00,SSW,208,7.0,10.0,75,0.00,,---,0.00,VWS V14.01,2013-06-22 11:24:00,
2013-06-22 07:29:00,71.6,63.3,30.00,SSW,204,6.0,10.0,75,0.00,,---,0.00,VWS V14.01,2013-06-22 11:29:00,
2013-06-22 07:34:00,71.7,63.4,30.00,SSW,198,6.0,10.0,75,0.00,,---,0.00,VWS V14.01,2013-06-22 11:34:00,
2013-06-22 07:40:00,71.9,63.9,30.00,SSW,208,5.0,10.0,76,0.00,,---,0.00,VWS V14.01,2013-06-22 11:40:00,
2013-06-22 07:45:00,72.0,63.7,30.01,SW,233,5.0,10.0,75,0.00,,---,0.00,VWS V14.01,2013-06-22 11:45:00,
2013-06-22 07:50:00,72.2,64.2,30.01,SW,226,6.0,10.0,76,0.00,,---,0.00,VWS V14.01,2013-06-22 11:50:00,
2013-06-22 07:55:00,72.4,64.4,30.01,SSW,212,7.0,10.0,76,0.00,,---,0.00,VWS V14.01,2013-06-22 11:55:00,
2013-06-22 08:00:00,72.5,64.5,30.01,SSW,211,6.0,10.0,76,0.00,,---,0.00,VWS V14.01,2013-06-22 12:00:00,
2013-06-22 08:05:00,72.7,64.7,30.01,SW,232,5.0,9.0,76,0.00,,---,0.00,VWS V14.01,2013-06-22 12:05:00,
2013-06-22 08:10:00,72.9,64.9,30.01,WSW,243,6.0,9.0,76,0.00,,---,0.00,VWS V14.01,2013-06-22 12:10:00,
2013-06-22 08:15:00,73.2,65.2,30.01,SW,232,6.0,9.0,76,0.00,,---,0.00,VWS V14.01,2013-06-22 12:15:00,
2013-06-22 08:20:00,73.3,64.9,30.01,WSW,242,5.0,10.0,75,0.00,,---,0.00,VWS V14.01,2013-06-22 12:20:00,
2013-06-22 08:25:00,73.5,65.5,30.01,SW,233,8.0,10.0,76,0.00,,---,0.00,VWS V14.01,2013-06-22 12:25:00,
2013-06-22 08:31:00,73.6,65.6,30.02,SW,217,6.0,12.0,76,0.00,,---,0.00,VWS V14.01,2013-06-22 12:31:00,
2013-06-22 08:36:00,73.8,65.8,30.01,SSW,211,10.0,12.0,76,0.00,,---,0.00,VWS V14.01,2013-06-22 12:36:00,
2013-06-22 08:41:00,74.0,66.3,30.01,SSW,208,7.0,12.0,77,0.00,,---,0.00,VWS V14.01,2013-06-22 12:41:00,
2013-06-22 08:46:00,74.2,66.2,30.01,SSW,203,4.0,13.0,76,0.00,,---,0.00,VWS V14.01,2013-06-22 12:46:00,
2013-06-22 08:51:00,74.4,66.0,30.01,SSW,205,5.0,14.0,75,0.00,,---,0.00,VWS V14.01,2013-06-22 12:51:00,
2013-06-22 08:56:00,74.7,66.6,30.01,SW,229,6.0,14.0,76,0.00,,---,0.00,VWS V14.01,2013-06-22 12:56:00,
2013-06-22 09:00:00,72.5,64.5,30.01,SSW,212,7.0,10.0,76,0.00,,---,0.00,VWS V14.01,2013-06-22 13:00:00,
2013-06-22 09:01:00,74.9,66.8,30.01,SW,222,10.0,11.0,76,0.00,,---,0.00,VWS V14.01,2013-06-22 13:01:00,
2013-06-22 09:06:00,75.1,66.6,30.02,WSW,243,7.0,11.0,75,0.00,,---,0.00,VWS V14.01,2013-06-22 13:06:00,
2013-06-22 09:11:00,75.4,67.3,30.02,WSW,257,6.0,11.0,76,0.00,,---,0.00,VWS V14.01,2013-06-22 13:11:00,
2013-06-22 09:16:00,75.5,67.4,30.02,SSW,207,6.0,11.0,76,0.00,,---,0.00,VWS V14.01,2013-06-22 13:16:00,
2013-06-22 09:21:00,75.6,67.5,30.02,WSW,249,4.0,11.0,76,0.00,,---,0.00,VWS V14.01,2013-06-22 13:21:00,
2013-06-22 09:27:00,75.8,68.1,30.02,WSW,249,5.0,11.0,77,0.00,,---,0.00,VWS V14.01,2013-06-22 13:27:00,
2013-06-22 09:32:00,75.8,67.7,30.03,West,259,3.0,11.0,76,0.00,,---,0.00,VWS V14.01,2013-06-22 13:32:00,
2013-06-22 09:37:00,75.8,67.7,30.03,WSW,249,9.0,11.0,76,0.00,,---,0.00,VWS V14.01,2013-06-22 13:37:00,
2013-06-22 09:42:00,75.9,68.2,30.03,WSW,238,3.0,11.0,77,0.00,,---,0.00,VWS V14.01,2013-06-22 13:42:00,
2013-06-22 09:47:00,76.0,68.3,30.03,WSW,253,6.0,11.0,77,0.00,,---,0.00,VWS V14.01,2013-06-22 13:47:00,
2013-06-22 09:52:00,76.1,68.8,30.03,West,262,5.0,11.0,78,0.00,,---,0.00,VWS V14.01,2013-06-22 13:52:00,
2013-06-22 09:57:00,76.2,68.8,30.03,West,262,8.0,11.0,78,0.00,,---,0.00,VWS V14.01,2013-06-22 13:57:00,
2013-06-22 10:00:00,74.9,66.8,30.01,SW,215,10.0,14.0,76,0.00,,---,0.00,VWS V14.01,2013-06-22 14:00:00,
2013-06-22 10:02:00,76.4,68.7,30.03,SSW,210,4.0,5.0,77,0.00,,---,0.00,VWS V14.01,2013-06-22 14:02:00,
2013-06-22 10:07:00,76.6,69.2,30.03,SW,219,3.0,8.0,78,0.00,,---,0.00,VWS V14.01,2013-06-22 14:07:00,
2013-06-22 10:12:00,76.9,69.9,30.03,WNW,288,4.0,8.0,79,0.00,,---,0.00,VWS V14.01,2013-06-22 14:12:00,
2013-06-22 10:17:00,77.2,69.4,30.03,West,267,5.0,11.0,77,0.00,,---,0.00,VWS V14.01,2013-06-22 14:17:00,
2013-06-22 10:23:00,77.5,69.3,30.03,West,270,6.0,13.0,76,0.00,,---,0.00,VWS V14.01,2013-06-22 14:23:00,
2013-06-22 10:28:00,77.9,69.7,30.03,West,267,10.0,13.0,76,0.00,,---,0.00,VWS V14.01,2013-06-22 14:28:00,
2013-06-22 10:33:00,78.0,69.1,30.03,West,274,12.0,17.0,74,0.00,,---,0.00,VWS V14.01,2013-06-22 14:33:00,
2013-06-22 10:38:00,78.6,69.6,30.03,NW,305,13.0,17.0,74,0.00,,---,0.00,VWS V14.01,2013-06-22 14:38:00,
2013-06-22 10:43:00,78.7,70.1,30.03,West,281,5.0,17.0,75,0.00,,---,0.00,VWS V14.01,2013-06-22 14:43:00,
2013-06-22 10:48:00,78.6,69.6,30.03,SW,229,6.0,17.0,74,0.00,,---,0.00,VWS V14.01,2013-06-22 14:48:00,
2013-06-22 10:53:00,78.7,69.3,30.02,WSW,239,4.0,17.0,73,0.00,,---,0.00,VWS V14.01,2013-06-22 14:53:00,
2013-06-22 10:58:00,79.1,70.9,30.02,WSW,243,4.0,17.0,76,0.00,,---,0.00,VWS V14.01,2013-06-22 14:58:00,
2013-06-22 11:00:00,76.3,68.6,30.03,WSW,243,3.0,11.0,77,0.00,,---,0.00,VWS V14.01,2013-06-22 15:00:00,
2013-06-22 11:03:00,79.2,69.4,30.02,WSW,249,7.0,14.0,72,0.00,,---,0.00,VWS V14.01,2013-06-22 15:03:00,
2013-06-22 11:09:00,79.1,70.1,30.02,WNW,283,8.0,14.0,74,0.00,,---,0.00,VWS V14.01,2013-06-22 15:09:00,
2013-06-22 11:14:00,79.1,69.7,30.02,West,280,5.0,14.0,73,0.00,,---,0.00,VWS V14.01,2013-06-22 15:14:00,
2013-06-22 11:19:00,79.6,71.0,30.02,WNW,283,6.0,14.0,75,0.00,,---,0.00,VWS V14.01,2013-06-22 15:19:00,
2013-06-22 11:24:00,79.7,69.9,30.02,West,259,5.0,14.0,72,0.00,,---,0.00,VWS V14.01,2013-06-22 15:24:00,
2013-06-22 11:29:00,79.9,70.5,30.02,WSW,243,9.0,14.0,73,0.00,,---,0.00,VWS V14.01,2013-06-22 15:29:00,
2013-06-22 11:34:00,79.9,69.7,30.02,West,281,6.0,14.0,71,0.00,,---,0.00,VWS V14.01,2013-06-22 15:34:00,
2013-06-22 11:39:00,80.0,69.8,30.02,WSW,253,6.0,14.0,71,0.00,,---,0.00,VWS V14.01,2013-06-22 15:39:00,
2013-06-22 11:45:00,80.4,70.6,30.02,West,267,5.0,14.0,72,0.00,,---,0.00,VWS V14.01,2013-06-22 15:45:00,
2013-06-22 11:50:00,80.2,69.9,30.03,West,277,7.0,14.0,71,0.00,,---,0.00,VWS V14.01,2013-06-22 15:50:00,
2013-06-22 11:55:00,80.3,69.6,30.03,WNW,298,4.0,14.0,70,0.00,,---,0.00,VWS V14.01,2013-06-22 15:55:00,
2013-06-22 12:00:00,80.4,70.1,30.03,WNW,288,2.0,14.0,71,0.00,,---,0.00,VWS V14.01,2013-06-22 16:00:00,
2013-06-22 12:05:00,81.0,71.1,30.03,WSW,255,3.0,9.0,72,0.00,,---,0.00,VWS V14.01,2013-06-22 16:05:00,
2013-06-22 12:10:00,81.3,70.6,30.03,West,281,7.0,10.0,70,0.00,,---,0.00,VWS V14.01,2013-06-22 16:10:00,
2013-06-22 12:15:00,81.1,70.4,30.03,WNW,285,1.0,10.0,70,0.00,,---,0.00,VWS V14.01,2013-06-22 16:15:00,
2013-06-22 12:20:00,81.9,71.6,30.02,WSW,250,6.0,10.0,71,0.00,,---,0.00,VWS V14.01,2013-06-22 16:20:00,
2013-06-22 12:26:00,81.7,70.6,30.03,SW,231,5.0,10.0,69,0.00,,---,0.00,VWS V14.01,2013-06-22 16:26:00,
2013-06-22 12:31:00,81.9,70.7,30.03,WNW,301,2.0,10.0,69,0.00,,---,0.00,VWS V14.01,2013-06-22 16:31:00,
2013-06-22 12:36:00,82.1,70.9,30.03,SW,229,4.0,10.0,69,0.00,,---,0.00,VWS V14.01,2013-06-22 16:36:00,
2013-06-22 12:41:00,82.1,72.2,30.03,SW,226,2.0,10.0,72,0.00,,---,0.00,VWS V14.01,2013-06-22 16:41:00,
2013-06-22 12:46:00,82.4,71.2,30.03,WSW,256,5.0,10.0,69,0.00,,---,0.00,VWS V14.01,2013-06-22 16:46:00,
2013-06-22 12:51:00,82.2,71.0,30.03,SW,231,4.0,10.0,69,0.00,,---,0.00,VWS V14.01,2013-06-22 16:51:00,
2013-06-22 12:56:00,82.2,71.0,30.02,West,263,4.0,10.0,69,0.00,,---,0.00,VWS V14.01,2013-06-22 16:56:00,
2013-06-22 13:00:00,80.4,70.1,30.03,NW,314,5.0,14.0,71,0.00,,---,0.00,VWS V14.01,2013-06-22 17:00:00,
2013-06-22 13:01:00,82.3,70.7,30.02,SW,227,6.0,6.0,68,0.00,,---,0.00,VWS V14.01,2013-06-22 17:01:00,
2013-06-22 13:06:00,82.3,70.7,30.01,SSE,159,6.0,8.0,68,0.00,,---,0.00,VWS V14.01,2013-06-22 17:06:00,
2013-06-22 13:25:00,82.3,71.5,30.02,SW,215,1.0,9.0,70,0.00,,---,0.00,VWS V14.01,2013-06-22 17:25:00,
2013-06-22 13:31:00,82.5,72.2,30.02,WSW,253,4.0,9.0,71,0.00,,---,0.00,VWS V14.01,2013-06-22 17:31:00,
2013-06-22 13:36:00,82.3,70.7,30.02,South,191,2.0,9.0,68,0.00,,---,0.00,VWS V14.01,2013-06-22 17:36:00,
2013-06-22 13:41:00,83.0,70.9,30.02,SW,235,6.0,9.0,67,0.00,,---,0.00,VWS V14.01,2013-06-22 17:41:00,
2013-06-22 13:46:00,83.2,71.6,30.02,West,259,4.0,9.0,68,0.00,,---,0.00,VWS V14.01,2013-06-22 17:46:00,
2013-06-22 13:51:00,83.7,71.6,30.02,NNE,19,3.0,9.0,67,0.00,,---,0.00,VWS V14.01,2013-06-22 17:51:00,
2013-06-22 13:56:00,84.2,72.1,30.01,West,260,4.0,9.0,67,0.00,,---,0.00,VWS V14.01,2013-06-22 17:56:00,
2013-06-22 14:00:00,82.3,70.7,30.02,SW,218,4.0,13.0,68,0.00,,---,0.00,VWS V14.01,2013-06-22 18:00:00,
2013-06-22 14:01:00,83.9,70.4,30.01,WNW,283,0.0,1.0,64,0.00,,---,0.00,VWS V14.01,2013-06-22 18:01:00,
2013-06-22 14:06:00,84.7,72.1,30.01,SW,228,0.0,3.0,66,0.00,,---,0.00,VWS V14.01,2013-06-22 18:06:00,
2013-06-22 14:11:00,85.1,72.5,30.01,NW,309,4.0,4.0,66,0.00,,---,0.00,VWS V14.01,2013-06-22 18:11:00,
2013-06-22 14:17:00,84.1,72.4,30.01,South,190,6.0,8.0,68,0.00,,---,0.00,VWS V14.01,2013-06-22 18:17:00,
2013-06-22 14:23:00,83.3,72.9,30.01,SW,235,6.0,9.0,71,0.00,,---,0.00,VWS V14.01,2013-06-22 18:23:00,
2013-06-22 14:28:00,82.6,71.8,30.01,SSW,195,6.0,12.0,70,0.00,,---,0.00,VWS V14.01,2013-06-22 18:28:00,
2013-06-22 14:34:00,82.4,72.5,30.01,SSW,211,8.0,12.0,72,0.00,,---,0.00,VWS V14.01,2013-06-22 18:34:00,
2013-06-22 14:39:00,82.3,72.8,30.01,SSW,194,6.0,12.0,73,0.00,,---,0.00,VWS V14.01,2013-06-22 18:39:00,
2013-06-22 14:44:00,82.2,72.3,30.01,SW,229,7.0,12.0,72,0.00,,---,0.00,VWS V14.01,2013-06-22 18:44:00,
2013-06-22 14:49:00,82.3,72.4,30.00,South,188,7.0,12.0,72,0.00,,---,0.00,VWS V14.01,2013-06-22 18:49:00,
2013-06-22 14:54:00,82.4,72.5,30.00,SW,224,7.0,12.0,72,0.00,,---,0.00,VWS V14.01,2013-06-22 18:54:00,
2013-06-22 15:00:00,82.3,72.4,30.00,SW,228,6.0,12.0,72,0.00,,---,0.00,VWS V14.01,2013-06-22 19:00:00,
2013-06-22 15:05:00,82.0,72.1,30.01,West,277,5.0,7.0,72,0.00,,---,0.00,VWS V14.01,2013-06-22 19:05:00,
2013-06-22 15:10:00,82.2,72.7,30.00,SSW,195,5.0,8.0,73,0.00,,---,0.00,VWS V14.01,2013-06-22 19:10:00,
2013-06-22 15:15:00,83.0,71.8,30.00,SE,126,2.0,8.0,69,0.00,,---,0.00,VWS V14.01,2013-06-22 19:15:00,
2013-06-22 15:20:00,83.8,73.0,30.00,SW,221,7.0,9.0,70,0.00,,---,0.00,VWS V14.01,2013-06-22 19:20:00,
2013-06-22 15:25:00,83.9,72.2,29.99,WSW,240,1.0,9.0,68,0.00,,---,0.00,VWS V14.01,2013-06-22 19:25:00,
2013-06-22 15:31:00,84.8,72.2,29.99,SSW,207,2.0,9.0,66,0.00,,---,0.00,VWS V14.01,2013-06-22 19:31:00,
2013-06-22 15:36:00,84.6,72.0,29.98,WSW,249,6.0,9.0,66,0.00,,---,0.00,VWS V14.01,2013-06-22 19:36:00,
2013-06-22 15:41:00,84.0,71.4,29.98,WSW,247,5.0,9.0,66,0.00,,---,0.00,VWS V14.01,2013-06-22 19:41:00,
2013-06-22 15:46:00,83.8,71.7,29.98,SSW,193,5.0,9.0,67,0.00,,---,0.00,VWS V14.01,2013-06-22 19:46:00,
2013-06-22 15:51:00,83.8,71.2,29.98,SW,225,5.0,9.0,66,0.00,,---,0.00,VWS V14.01,2013-06-22 19:51:00,
2013-06-22 15:56:00,83.8,72.1,29.98,South,174,3.0,9.0,68,0.00,,---,0.00,VWS V14.01,2013-06-22 19:56:00,
2013-06-22 16:00:00,82.2,72.3,30.00,WSW,249,5.0,12.0,72,0.00,,---,0.00,VWS V14.01,2013-06-22 20:00:00,
2013-06-22 16:01:00,84.1,71.5,29.98,SW,214,5.0,8.0,66,0.00,,---,0.00,VWS V14.01,2013-06-22 20:01:00,
2013-06-22 16:06:00,84.1,72.4,29.98,West,276,5.0,8.0,68,0.00,,---,0.00,VWS V14.01,2013-06-22 20:06:00,
2013-06-22 16:11:00,84.0,71.9,29.97,WSW,239,4.0,8.0,67,0.00,,---,0.00,VWS V14.01,2013-06-22 20:11:00,
2013-06-22 16:16:00,84.2,72.1,29.96,West,259,4.0,8.0,67,0.00,,---,0.00,VWS V14.01,2013-06-22 20:16:00,
2013-06-22 16:21:00,84.3,70.8,29.96,SW,219,4.0,8.0,64,0.00,,---,0.00,VWS V14.01,2013-06-22 20:21:00,
2013-06-22 16:27:00,84.3,70.8,29.95,SSW,211,4.0,11.0,64,0.00,,---,0.00,VWS V14.01,2013-06-22 20:27:00,
2013-06-22 16:32:00,84.6,72.9,29.95,WNW,283,3.0,11.0,68,0.00,,---,0.00,VWS V14.01,2013-06-22 20:32:00,
2013-06-22 16:37:00,84.6,72.0,29.94,WSW,250,3.0,11.0,66,0.00,,---,0.00,VWS V14.01,2013-06-22 20:37:00,
2013-06-22 16:42:00,84.6,70.6,29.94,WNW,283,4.0,11.0,63,0.00,,---,0.00,VWS V14.01,2013-06-22 20:42:00,
2013-06-22 16:47:00,84.3,71.3,29.94,West,265,2.0,11.0,65,0.00,,---,0.00,VWS V14.01,2013-06-22 20:47:00,
2013-06-22 16:52:00,84.4,70.4,29.94,NNW,340,4.0,11.0,63,0.00,,---,0.00,VWS V14.01,2013-06-22 20:52:00,
2013-06-22 16:57:00,84.3,70.8,29.94,NE,44,3.0,11.0,64,0.00,,---,0.00,VWS V14.01,2013-06-22 20:57:00,
2013-06-22 17:00:00,84.1,72.0,29.98,SW,222,8.0,9.0,67,0.00,,---,0.00,VWS V14.01,2013-06-22 21:00:00,
2013-06-22 17:02:00,84.0,70.1,29.94,NNE,23,1.0,2.0,63,0.00,,---,0.00,VWS V14.01,2013-06-22 21:02:00,
2013-06-22 17:07:00,84.0,70.1,29.94,NNE,26,0.0,2.0,63,0.00,,---,0.00,VWS V14.01,2013-06-22 21:07:00,
2013-06-22 17:12:00,84.2,70.7,29.95,NNE,25,0.0,2.0,64,0.00,,---,0.00,VWS V14.01,2013-06-22 21:12:00,
2013-06-22 17:17:00,84.3,70.8,29.95,SSW,193,3.0,3.0,64,0.00,,---,0.00,VWS V14.01,2013-06-22 21:17:00,
2013-06-22 17:23:00,84.1,71.5,29.95,SSE,167,4.0,4.0,66,0.00,,---,0.00,VWS V14.01,2013-06-22 21:23:00,
2013-06-22 17:28:00,83.9,71.8,29.95,South,186,1.0,4.0,67,0.00,,---,0.00,VWS V14.01,2013-06-22 21:28:00,
2013-06-22 17:33:00,83.7,70.2,29.94,SW,228,2.0,4.0,64,0.00,,---,0.00,VWS V14.01,2013-06-22 21:33:00,
2013-06-22 17:38:00,83.6,71.5,29.95,SSE,153,2.0,4.0,67,0.00,,---,0.00,VWS V14.01,2013-06-22 21:38:00,
2013-06-22 17:43:00,83.3,71.2,29.96,SSW,197,2.0,4.0,67,0.00,,---,0.00,VWS V14.01,2013-06-22 21:43:00,
2013-06-22 17:48:00,83.0,70.9,29.97,SSE,156,3.0,5.0,67,0.00,,---,0.00,VWS V14.01,2013-06-22 21:48:00,
2013-06-22 17:53:00,82.7,71.5,29.97,South,187,2.0,7.0,69,0.00,,---,0.00,VWS V14.01,2013-06-22 21:53:00,
2013-06-22 17:58:00,82.4,71.2,29.96,SSE,151,3.0,7.0,69,0.00,,---,0.00,VWS V14.01,2013-06-22 21:58:00,
2013-06-22 18:00:00,84.1,70.2,29.94,NNE,22,1.0,11.0,63,0.00,,---,0.00,VWS V14.01,2013-06-22 22:00:00,
2013-06-22 18:03:00,82.1,71.8,29.96,ESE,118,10.0,19.0,71,0.00,,---,0.00,VWS V14.01,2013-06-22 22:03:00,
2013-06-22 18:08:00,80.8,71.3,29.97,SE,129,8.0,19.0,73,0.00,,---,0.00,VWS V14.01,2013-06-22 22:08:00,
2013-06-22 18:13:00,79.6,71.4,29.96,SSE,149,3.0,19.0,76,0.00,,---,0.00,VWS V14.01,2013-06-22 22:13:00,
2013-06-22 18:18:00,78.9,71.1,29.96,SSE,157,7.0,19.0,77,0.00,,---,0.00,VWS V14.01,2013-06-22 22:18:00,
2013-06-22 18:23:00,78.5,70.7,29.96,SE,134,5.0,19.0,77,0.00,,---,0.00,VWS V14.01,2013-06-22 22:23:00,
2013-06-22 18:28:00,78.2,70.8,29.96,SE,131,6.0,19.0,78,0.00,,---,0.00,VWS V14.01,2013-06-22 22:28:00,
2013-06-22 18:34:00,78.0,70.6,29.96,South,186,5.0,19.0,78,0.00,,---,0.00,VWS V14.01,2013-06-22 22:34:00,
2013-06-22 18:39:00,77.9,70.5,29.96,SSE,152,7.0,19.0,78,0.00,,---,0.00,VWS V14.01,2013-06-22 22:39:00,
2013-06-22 18:44:00,77.7,70.3,29.95,SE,139,5.0,19.0,78,0.00,,---,0.00,VWS V14.01,2013-06-22 22:44:00,
2013-06-22 18:49:00,77.4,70.4,29.95,SSW,203,10.0,19.0,79,0.00,,---,0.00,VWS V14.01,2013-06-22 22:49:00,
2013-06-22 18:54:00,77.2,70.2,29.95,South,181,6.0,19.0,79,0.00,,---,0.00,VWS V14.01,2013-06-22 22:54:00,
2013-06-22 18:59:00,77.0,70.4,29.95,South,187,3.0,19.0,80,0.00,,---,0.00,VWS V14.01,2013-06-22 22:59:00,
2013-06-22 19:00:00,82.3,71.5,29.96,SE,135,2.0,7.0,70,0.00,,---,0.00,VWS V14.01,2013-06-22 23:00:00,
2013-06-22 19:04:00,76.8,70.2,29.95,South,174,5.0,9.0,80,0.00,,---,0.00,VWS V14.01,2013-06-22 23:04:00,
2013-06-22 19:09:00,76.6,70.3,29.94,South,171,5.0,9.0,81,0.00,,---,0.00,VWS V14.01,2013-06-22 23:09:00,
2013-06-22 19:14:00,76.5,70.2,29.95,South,188,4.0,9.0,81,0.00,,---,0.00,VWS V14.01,2013-06-22 23:14:00,
2013-06-22 19:19:00,76.4,70.1,29.95,SSE,167,4.0,9.0,81,0.00,,---,0.00,VWS V14.01,2013-06-22 23:19:00,
2013-06-22 19:25:00,76.4,70.1,29.96,SSW,213,6.0,10.0,81,0.00,,---,0.00,VWS V14.01,2013-06-22 23:25:00,
2013-06-22 19:30:00,76.3,70.4,29.96,SSW,204,4.0,12.0,82,0.00,,---,0.00,VWS V14.01,2013-06-22 23:30:00,
2013-06-22 19:35:00,76.3,70.4,29.95,SSW,203,4.0,12.0,82,0.00,,---,0.00,VWS V14.01,2013-06-22 23:35:00,
2013-06-22 19:40:00,76.3,70.4,29.95,SSW,203,4.0,12.0,82,0.00,,---,0.00,VWS V14.01,2013-06-22 23:40:00,
2013-06-22 19:45:00,76.3,70.4,29.95,SW,222,3.0,12.0,82,0.00,,---,0.00,VWS V14.01,2013-06-22 23:45:00,
2013-06-22 19:50:00,76.4,70.5,29.95,SW,233,3.0,12.0,82,0.00,,---,0.00,VWS V14.01,2013-06-22 23:50:00,
2013-06-22 19:55:00,76.4,70.5,29.95,West,259,2.0,12.0,82,0.00,,---,0.00,VWS V14.01,2013-06-22 23:55:00,
2013-06-22 20:00:00,76.4,70.5,29.95,SW,235,3.0,12.0,82,0.00,,---,0.00,VWS V14.01,2013-06-23 00:00:00,
2013-06-22 20:05:00,76.5,70.6,29.95,SW,236,1.0,5.0,82,0.00,,---,0.00,VWS V14.01,2013-06-23 00:05:00,
2013-06-22 20:10:00,76.4,70.5,29.95,SSW,198,3.0,5.0,82,0.00,,---,0.00,VWS V14.01,2013-06-23 00:10:00,
2013-06-22 20:15:00,76.4,70.9,29.95,SSW,211,2.0,5.0,83,0.00,,---,0.00,VWS V14.01,2013-06-23 00:15:00,
2013-06-22 20:20:00,76.4,70.9,29.95,SW,235,3.0,6.0,83,0.00,,---,0.00,VWS V14.01,2013-06-23 00:20:00,
2013-06-22 20:26:00,76.3,70.8,29.95,SW,215,5.0,7.0,83,0.00,,---,0.00,VWS V14.01,2013-06-23 00:26:00,
2013-06-22 20:31:00,76.4,70.9,29.95,SW,215,6.0,9.0,83,0.00,,---,0.00,VWS V14.01,2013-06-23 00:31:00,
2013-06-22 20:36:00,76.4,70.9,29.95,SW,218,5.0,9.0,83,0.00,,---,0.00,VWS V14.01,2013-06-23 00:36:00,
2013-06-22 20:41:00,76.3,70.8,29.95,South,169,5.0,9.0,83,0.00,,---,0.00,VWS V14.01,2013-06-23 00:41:00,
2013-06-22 20:46:00,76.3,70.8,29.95,SW,218,3.0,9.0,83,0.00,,---,0.00,VWS V14.01,2013-06-23 00:46:00,
2013-06-22 20:51:00,76.2,70.7,29.96,SSW,201,4.0,9.0,83,0.00,,---,0.00,VWS V14.01,2013-06-23 00:51:00,
2013-06-22 20:56:00,76.2,70.7,29.96,South,186,3.0,9.0,83,0.00,,---,0.00,VWS V14.01,2013-06-23 00:56:00,
2013-06-22 21:00:00,76.4,70.5,29.95,SW,236,3.0,12.0,82,0.00,,---,0.00,VWS V14.01,2013-06-23 01:00:00,
2013-06-22 21:01:00,76.1,70.6,29.96,SW,236,2.0,3.0,83,0.00,,---,0.00,VWS V14.01,2013-06-23 01:01:00,
2013-06-22 21:06:00,75.9,70.7,29.96,SW,228,2.0,3.0,84,0.00,,---,0.00,VWS V14.01,2013-06-23 01:06:00,
2013-06-22 21:12:00,75.7,70.5,29.97,SW,232,2.0,3.0,84,0.00,,---,0.00,VWS V14.01,2013-06-23 01:12:00,
2013-06-22 21:17:00,75.6,70.4,29.97,SW,225,2.0,3.0,84,0.00,,---,0.00,VWS V14.01,2013-06-23 01:17:00,
2013-06-22 21:22:00,75.5,70.3,29.97,SW,222,2.0,5.0,84,0.00,,---,0.00,VWS V14.01,2013-06-23 01:22:00,
2013-06-22 21:27:00,75.3,70.1,29.97,SSW,210,3.0,5.0,84,0.00,,---,0.00,VWS V14.01,2013-06-23 01:27:00,
2013-06-22 21:32:00,75.1,70.3,29.97,South,173,3.0,5.0,85,0.00,,---,0.00,VWS V14.01,2013-06-23 01:32:00,
2013-06-22 21:37:00,75.0,70.2,29.97,SSW,204,2.0,6.0,85,0.00,,---,0.00,VWS V14.01,2013-06-23 01:37:00,
2013-06-22 21:42:00,74.8,70.0,29.97,SSW,210,1.0,6.0,85,0.00,,---,0.00,VWS V14.01,2013-06-23 01:42:00,
2013-06-22 21:47:00,74.6,69.8,29.98,SSE,162,3.0,6.0,85,0.00,,---,0.00,VWS V14.01,2013-06-23 01:47:00,
2013-06-22 21:52:00,74.6,69.8,29.98,West,263,1.0,6.0,85,0.00,,---,0.00,VWS V14.01,2013-06-23 01:52:00,
2013-06-22 21:57:00,74.4,69.6,29.99,West,264,0.0,6.0,85,0.00,,---,0.00,VWS V14.01,2013-06-23 01:57:00,
2013-06-22 22:00:00,76.1,70.6,29.96,WSW,256,2.0,9.0,83,0.00,,---,0.00,VWS V14.01,2013-06-23 02:00:00,
2013-06-22 22:02:00,74.2,69.8,29.99,SSE,156,2.0,2.0,86,0.00,,---,0.00,VWS V14.01,2013-06-23 02:02:00,
2013-06-22 22:07:00,74.0,69.6,29.99,SSE,162,1.0,3.0,86,0.00,,---,0.00,VWS V14.01,2013-06-23 02:07:00,
2013-06-22 22:13:00,73.9,69.4,30.00,SSE,155,2.0,3.0,86,0.00,,---,0.00,VWS V14.01,2013-06-23 02:13:00,
2013-06-22 22:18:00,73.9,69.4,30.00,South,172,5.0,5.0,86,0.00,,---,0.00,VWS V14.01,2013-06-23 02:18:00,
2013-06-22 22:23:00,73.9,69.4,30.00,SW,226,2.0,5.0,86,0.00,,---,0.00,VWS V14.01,2013-06-23 02:23:00,
2013-06-22 22:28:00,73.8,69.3,30.00,South,178,3.0,5.0,86,0.00,,---,0.00,VWS V14.01,2013-06-23 02:28:00,
2013-06-22 22:33:00,73.9,69.4,30.00,SW,224,1.0,5.0,86,0.00,,---,0.00,VWS V14.01,2013-06-23 02:33:00,
2013-06-22 22:38:00,73.8,69.3,30.00,SSW,194,2.0,5.0,86,0.00,,---,0.00,VWS V14.01,2013-06-23 02:38:00,
2013-06-22 22:43:00,73.8,69.3,30.00,South,172,3.0,5.0,86,0.00,,---,0.00,VWS V14.01,2013-06-23 02:43:00,
2013-06-22 22:48:00,73.9,69.1,30.00,SSW,201,4.0,6.0,85,0.00,,---,0.00,VWS V14.01,2013-06-23 02:48:00,
2013-06-22 22:53:00,73.9,69.1,30.00,WSW,252,2.0,6.0,85,0.00,,---,0.00,VWS V14.01,2013-06-23 02:53:00,
2013-06-22 22:58:00,73.7,68.9,30.00,SW,219,3.0,6.0,85,0.00,,---,0.00,VWS V14.01,2013-06-23 02:58:00,
2013-06-22 23:00:00,74.2,69.8,29.99,West,263,0.0,6.0,86,0.00,,---,0.00,VWS V14.01,2013-06-23 03:00:00,
2013-06-22 23:03:00,73.7,68.9,30.00,SSW,203,2.0,5.0,85,0.00,,---,0.00,VWS V14.01,2013-06-23 03:03:00,
2013-06-22 23:08:00,73.6,68.8,30.00,SW,221,2.0,5.0,85,0.00,,---,0.00,VWS V14.01,2013-06-23 03:08:00,
2013-06-22 23:13:00,73.5,68.7,30.00,SSW,211,3.0,5.0,85,0.00,,---,0.00,VWS V14.01,2013-06-23 03:13:00,
2013-06-22 23:18:00,73.5,68.7,30.00,SW,224,3.0,5.0,85,0.00,,---,0.00,VWS V14.01,2013-06-23 03:18:00,
2013-06-22 23:24:00,73.4,68.6,30.00,SW,235,2.0,5.0,85,0.00,,---,0.00,VWS V14.01,2013-06-23 03:24:00,
2013-06-22 23:29:00,73.2,68.4,29.99,WSW,240,1.0,5.0,85,0.00,,---,0.00,VWS V14.01,2013-06-23 03:29:00,
2013-06-22 23:34:00,73.0,68.2,29.99,West,259,0.0,5.0,85,0.00,,---,0.00,VWS V14.01,2013-06-23 03:34:00,
2013-06-22 23:39:00,72.9,68.5,29.99,WSW,243,1.0,5.0,86,0.00,,---,0.00,VWS V14.01,2013-06-23 03:39:00,
2013-06-22 23:44:00,72.7,68.3,29.99,WSW,243,1.0,5.0,86,0.00,,---,0.00,VWS V14.01,2013-06-23 03:44:00,
2013-06-22 23:49:00,72.5,68.1,29.99,WSW,243,1.0,5.0,86,0.00,,---,0.00,VWS V14.01,2013-06-23 03:49:00,
2013-06-22 23:54:00,72.3,68.2,29.99,WSW,244,1.0,5.0,87,0.00,,---,0.00,VWS V14.01,2013-06-23 03:54:00,
2013-06-22 23:59:00,72.1,68.0,29.99,SW,221,2.0,5.0,87,0.00,,---,0.00,VWS V14.01,2013-06-23 03:59:00,